Time;durP1;ratioP1;P1;durP2;ratioP2;P2;SDS_P1;SDS_P2;PMS_P1;PMS_P2;Temp;Humidity;BMP_temperature;BMP_pressure;BME280_temperature;BME280_humidity;BME280_pressure;Samples;Min_cycle;Max_cycle;Signal;HPM_P1;HPM_P2
2021/05/05 00:01:13;;;;;;;6.25;2.37;;;;;;;9.47;52.32;98354.30;1768605;79;20986;-61
2021/05/05 00:03:40;;;;;;;2.87;2.10;;;;;;;9.45;52.39;98350.20;1801038;78;21543;-61
2021/05/05 00:06:08;;;;;;;3.87;1.87;;;;;;;9.42;52.51;98350.07;1775439;79;21010;-61
2021/05/05 00:08:36;;;;;;;2.67;1.90;;;;;;;9.39;52.50;98342.98;1704426;82;21410;-62
2021/05/05 00:11:04;;;;;;;2.52;1.87;;;;;;;9.37;52.56;98339.70;1723950;82;21084;-62
2021/05/05 00:13:32;;;;;;;2.12;1.80;;;;;;;9.36;52.57;98341.53;1734074;82;21184;-60
2021/05/05 00:15:59;;;;;;;3.25;2.02;;;;;;;9.37;52.59;98340.53;1736498;82;21200;-62
2021/05/05 00:18:27;;;;;;;2.20;2.00;;;;;;;9.37;52.76;98335.22;1726052;81;21157;-61
2021/05/05 00:20:54;;;;;;;3.80;2.10;;;;;;;9.32;52.81;98334.97;1774868;79;21397;-60
2021/05/05 00:23:21;;;;;;;2.37;2.10;;;;;;;9.31;52.89;98331.99;1751961;79;21150;-61
2021/05/05 00:25:49;;;;;;;2.47;1.50;;;;;;;9.28;53.00;98333.72;1732842;81;21099;-61
2021/05/05 00:28:16;;;;;;;3.05;2.02;;;;;;;9.26;53.14;98331.73;1722058;81;21200;-60
2021/05/05 00:30:44;;;;;;;3.75;2.20;;;;;;;9.22;53.26;98321.20;1739564;81;21122;-60
2021/05/05 00:33:11;;;;;;;5.65;1.95;;;;;;;9.19;53.35;98319.75;1759094;81;21210;-60
2021/05/05 00:35:39;;;;;;;2.77;2.08;;;;;;;9.19;53.49;98321.58;1747312;79;21137;-60
2021/05/05 00:38:09;;;;;;;5.40;2.60;;;;;;;9.16;53.64;98327.26;1749110;80;21175;-61
2021/05/05 00:40:37;;;;;;;4.28;2.25;;;;;;;9.11;53.85;98337.12;1754127;81;21046;-61
2021/05/05 00:43:06;;;;;;;3.90;2.30;;;;;;;9.09;53.88;98327.70;1732300;80;21577;-62
2021/05/05 00:45:35;;;;;;;6.83;2.10;;;;;;;9.07;53.99;98327.08;1739509;81;21204;-60
2021/05/05 00:48:06;;;;;;;3.60;2.12;;;;;;;9.03;54.17;98318.66;1748068;80;21671;-61
2021/05/05 00:50:33;;;;;;;4.33;2.25;;;;;;;9.01;54.26;98322.02;1739432;81;21066;-60
2021/05/05 00:53:00;;;;;;;3.17;2.17;;;;;;;8.99;54.35;98309.95;1732678;80;21146;-61
2021/05/05 00:55:28;;;;;;;4.53;2.08;;;;;;;8.98;54.35;98308.30;1753491;80;21180;-61
2021/05/05 00:57:56;;;;;;;3.33;2.40;;;;;;;8.96;54.45;98308.99;1732977;80;21382;-60
2021/05/05 01:00:25;;;;;;;2.70;2.17;;;;;;;8.97;54.49;98309.33;1744894;80;21091;-60
2021/05/05 01:02:53;;;;;;;2.85;2.40;;;;;;;8.95;54.57;98314.80;1773396;78;21475;-61
2021/05/05 01:05:21;;;;;;;3.22;2.30;;;;;;;8.95;54.53;98307.34;1773469;78;21108;-60
2021/05/05 01:07:48;;;;;;;2.67;2.05;;;;;;;8.96;54.61;98307.67;1800253;78;21144;-60
2021/05/05 01:10:17;;;;;;;4.85;2.80;;;;;;;8.93;54.69;98312.02;1797898;78;21992;-61
2021/05/05 01:12:46;;;;;;;4.00;2.27;;;;;;;8.92;54.69;98307.21;1773345;78;20933;-60
2021/05/05 01:15:15;;;;;;;3.55;2.60;;;;;;;8.92;54.77;98307.21;1770994;78;20914;-62
2021/05/05 01:17:44;;;;;;;4.22;2.00;;;;;;;8.91;54.83;98312.22;1784671;77;21064;-60
2021/05/05 01:20:14;;;;;;;3.85;2.40;;;;;;;8.90;54.90;98313.22;1753531;78;21104;-60
2021/05/05 01:22:41;;;;;;;3.75;2.75;;;;;;;8.88;54.99;98314.41;1775441;78;21306;-61
2021/05/05 01:25:18;;;;;;;9.28;2.60;;;;;;;8.86;55.05;98311.13;1773390;79;21175;-62
2021/05/05 01:27:46;;;;;;;5.28;3.02;;;;;;;8.81;55.30;98301.09;1792397;78;20939;-60
2021/05/05 01:30:17;;;;;;;5.95;2.55;;;;;;;8.78;55.49;98304.61;1768247;78;21123;-61
2021/05/05 01:32:44;;;;;;;8.03;3.45;;;;;;;8.74;55.62;98304.16;1771334;78;21167;-61
2021/05/05 01:35:12;;;;;;;5.12;3.62;;;;;;;8.68;55.75;98296.44;1767541;79;21422;-61
2021/05/05 01:37:41;;;;;;;5.45;3.95;;;;;;;8.64;55.89;98293.86;1798159;78;21135;-61
2021/05/05 01:40:17;;;;;;;5.20;3.98;;;;;;;8.63;55.89;98291.38;1774782;79;21091;-61
2021/05/05 01:42:45;;;;;;;;;;;;;;;8.61;55.97;98291.58;1749890;79;21108;-62
2021/05/05 01:45:14;;;;;;;6.95;4.12;;;;;;;8.59;56.00;98282.99;1773445;79;20135;-60
2021/05/05 01:47:41;;;;;;;7.45;3.50;;;;;;;8.58;56.05;98280.02;1768356;78;21360;-61
2021/05/05 01:50:11;;;;;;;7.80;4.72;;;;;;;8.59;56.06;98276.86;1777644;77;21152;-60
2021/05/05 01:52:38;;;;;;;8.55;3.72;;;;;;;8.56;56.09;98272.76;1769737;78;21104;-61
2021/05/05 01:55:08;;;;;;;7.30;3.30;;;;;;;8.54;56.06;98271.30;1804611;78;21104;-60
2021/05/05 01:57:39;;;;;;;8.75;3.47;;;;;;;8.50;56.09;98268.69;1763490;79;21198;-60
2021/05/05 02:00:15;;;;;;;6.58;3.47;;;;;;;8.47;56.12;98265.91;1793914;78;21155;-61
2021/05/05 02:02:47;;;;;;;6.78;3.25;;;;;;;8.43;56.13;98258.02;1765927;78;21579;-60
2021/05/05 02:05:17;;;;;;;4.75;3.40;;;;;;;8.42;56.03;98255.05;1743270;82;21633;-61
2021/05/05 02:07:49;;;;;;;11.08;3.37;;;;;;;8.42;56.04;98251.06;1719424;81;21002;-61
2021/05/05 02:10:18;;;;;;;6.30;3.47;;;;;;;8.41;55.96;98254.74;1735663;79;21512;-61
2021/05/05 02:12:48;;;;;;;4.50;2.77;;;;;;;8.41;55.96;98249.94;1725918;80;22153;-61
2021/05/05 02:15:21;;;;;;;2.83;2.42;;;;;;;8.38;55.99;98248.48;1725866;80;21036;-61
2021/05/05 02:17:51;;;;;;;6.40;2.83;;;;;;;8.37;55.94;98248.16;1705369;81;21152;-60
2021/05/05 02:20:28;;;;;;;2.77;2.30;;;;;;;8.38;55.90;98253.78;1727951;80;21167;-61
2021/05/05 02:22:54;;;;;;;2.63;2.10;;;;;;;8.37;55.88;98242.06;1726240;80;20929;-64
2021/05/05 02:25:22;;;;;;;4.10;2.45;;;;;;;8.36;55.89;98247.86;1725814;81;21332;-60
2021/05/05 02:27:50;;;;;;;5.42;2.40;;;;;;;8.37;55.88;98244.71;1744021;80;21124;-61
2021/05/05 02:30:21;;;;;;;3.50;2.62;;;;;;;8.38;55.83;98248.48;1727802;82;21214;-62
2021/05/05 02:32:56;;;;;;;6.33;2.95;;;;;;;8.39;55.74;98247.49;1726719;81;21509;-61
2021/05/05 02:35:24;;;;;;;2.20;2.00;;;;;;;8.40;55.70;98247.79;1725575;80;21168;-60
2021/05/05 02:37:53;;;;;;;4.62;2.10;;;;;;;8.42;55.57;98242.32;1737669;80;21397;-61
2021/05/05 02:40:20;;;;;;;4.00;2.17;;;;;;;8.42;55.54;98252.92;1693219;82;21144;-61
2021/05/05 02:42:48;;;;;;;7.42;2.50;;;;;;;8.42;55.55;98254.25;1725753;80;21163;-61
2021/05/05 02:45:17;;;;;;;3.37;2.08;;;;;;;8.41;55.54;98246.80;1725693;80;21156;-62
2021/05/05 02:47:46;;;;;;;3.70;1.87;;;;;;;8.40;55.57;98249.11;1749862;79;21133;-61
2021/05/05 02:50:14;;;;;;;3.20;2.15;;;;;;;8.39;55.58;98246.16;1788224;78;21194;-61
2021/05/05 02:52:41;;;;;;;3.72;2.22;;;;;;;8.37;55.64;98242.86;1773322;78;21597;-62
2021/05/05 02:55:10;;;;;;;2.85;2.00;;;;;;;8.38;55.68;98250.31;1773286;79;21164;-61
2021/05/05 02:57:38;;;;;;;5.92;2.55;;;;;;;8.37;55.63;98244.71;1776020;78;21136;-62
2021/05/05 03:00:09;;;;;;;4.97;2.40;;;;;;;8.36;55.69;98245.20;1765546;78;21582;-61
2021/05/05 03:02:37;;;;;;;4.87;2.62;;;;;;;8.36;55.77;98240.41;1773449;79;21365;-62
2021/05/05 03:05:07;;;;;;;5.20;2.60;;;;;;;8.34;55.86;98244.55;1745455;79;21491;-61
2021/05/05 03:07:35;;;;;;;9.28;2.42;;;;;;;8.35;55.85;98241.40;1782883;78;21488;-61
2021/05/05 03:10:05;;;;;;;3.72;2.22;;;;;;;8.33;55.90;98238.95;1771606;78;21136;-61
2021/05/05 03:12:32;;;;;;;2.25;2.05;;;;;;;8.36;55.95;98237.75;1735647;81;21557;-62
2021/05/05 03:15:00;;;;;;;3.30;3.00;;;;;;;8.35;56.03;98250.17;1747638;81;22391;-61
2021/05/05 03:17:27;;;;;;;2.95;2.47;;;;;;;8.35;56.02;98248.02;1746398;81;21218;-62
2021/05/05 03:19:56;;;;;;;2.95;2.65;;;;;;;8.36;56.10;98235.94;1738635;81;20928;-62
2021/05/05 03:22:25;;;;;;;2.80;2.15;;;;;;;8.36;56.16;98244.38;1742141;79;21066;-62
2021/05/05 03:24:53;;;;;;;3.58;2.15;;;;;;;8.33;56.16;98236.30;1738651;81;21064;-61
2021/05/05 03:27:20;;;;;;;4.05;2.02;;;;;;;8.33;56.24;98240.77;1741705;80;21370;-62
2021/05/05 03:29:48;;;;;;;2.50;2.30;;;;;;;8.32;56.26;98250.55;1747880;81;21176;-62
2021/05/05 03:32:15;;;;;;;6.90;3.33;;;;;;;8.32;56.30;98256.34;1755969;79;21078;-60
2021/05/05 03:34:43;;;;;;;8.68;4.20;;;;;;;8.32;56.29;98245.24;1729620;81;21159;-60
2021/05/05 03:37:10;;;;;;;6.03;3.83;;;;;;;8.32;56.36;98241.77;1751737;79;21184;-60
2021/05/05 03:39:38;;;;;;;5.33;3.90;;;;;;;8.32;56.35;98242.59;1748556;79;21360;-62
2021/05/05 03:42:07;;;;;;;5.72;3.45;;;;;;;8.33;56.41;98236.80;1753817;79;21079;-61
2021/05/05 03:44:35;;;;;;;4.22;3.17;;;;;;;8.39;56.41;98239.54;1715183;80;21157;-61
2021/05/05 03:47:03;;;;;;;5.62;2.87;;;;;;;8.50;56.28;98237.70;1750663;79;21147;-62
2021/05/05 03:49:32;;;;;;;5.47;3.50;;;;;;;8.69;55.92;98242.91;1748414;79;21065;-61
2021/05/05 03:51:59;;;;;;;2.92;2.62;;;;;;;8.91;55.59;98238.45;1783381;77;21345;-61
2021/05/05 03:54:27;;;;;;;5.28;4.08;;;;;;;9.14;54.96;98245.70;1790860;78;21575;-62
2021/05/05 03:56:54;;;;;;;3.70;3.40;;;;;;;9.40;54.40;98230.00;1796621;78;21136;-61
2021/05/05 03:59:22;;;;;;;4.47;3.90;;;;;;;9.71;53.80;98230.42;1786069;77;21185;-61
2021/05/05 04:01:49;;;;;;;6.05;4.47;;;;;;;10.03;53.11;98228.16;1740569;80;21135;-63
2021/05/05 04:04:17;;;;;;;6.85;4.22;;;;;;;10.30;52.14;98229.93;1730522;81;21413;-62
2021/05/05 04:06:44;;;;;;;4.55;3.62;;;;;;;10.53;51.48;98224.59;1710049;81;21215;-64
2021/05/05 04:09:13;;;;;;;4.80;3.15;;;;;;;10.81;51.02;98233.80;1736711;79;21077;-62
2021/05/05 04:11:41;;;;;;;3.52;2.83;;;;;;;11.10;50.23;98234.77;1736635;79;21106;-61
2021/05/05 04:14:09;;;;;;;5.22;3.00;;;;;;;11.40;49.54;98227.69;1720673;81;21568;-61
2021/05/05 04:16:55;;;;;;;4.45;3.20;;;;;;;11.65;48.91;98238.83;1753526;79;21576;-62
2021/05/05 04:19:40;;;;;;;3.17;2.85;;;;;;;11.90;47.92;98229.71;1772996;79;21556;-61
2021/05/05 04:22:26;;;;;;;2.57;2.37;;;;;;;12.06;47.53;98219.11;1716349;82;21211;-63
2021/05/05 04:25:13;;;;;;;3.33;2.50;;;;;;;12.26;47.07;98225.19;1784209;79;21060;-62
2021/05/05 04:27:42;;;;;;;5.03;2.20;;;;;;;12.45;46.51;98232.81;1803053;77;21147;-61
2021/05/05 04:30:17;;;;;;;2.62;2.33;;;;;;;12.57;46.21;98216.42;1716787;80;22302;-61
2021/05/05 04:32:45;;;;;;;3.00;2.70;;;;;;;12.68;45.70;98221.09;1730541;82;21597;-62
2021/05/05 04:35:14;;;;;;;6.45;4.20;;;;;;;12.78;45.94;98216.11;1761756;78;21135;-66
2021/05/05 04:37:42;;;;;;;4.95;4.03;;;;;;;12.89;45.44;98222.11;1795208;77;21092;-62
2021/05/05 04:40:10;;;;;;;5.50;4.08;;;;;;;13.03;45.30;98224.17;1803132;77;21156;-61
2021/05/05 04:42:38;;;;;;;4.78;3.50;;;;;;;13.27;44.94;98218.88;1722225;80;21388;-61
2021/05/05 04:45:07;;;;;;;5.80;3.12;;;;;;;13.48;44.85;98227.02;1762329;79;21152;-61
2021/05/05 04:47:36;;;;;;;3.00;2.70;;;;;;;13.74;43.75;98223.32;1794420;79;21047;-63
2021/05/05 04:50:05;;;;;;;4.42;3.27;;;;;;;13.89;43.60;98215.77;1741586;82;21158;-63
2021/05/05 04:52:33;;;;;;;7.05;3.17;;;;;;;14.09;43.25;98213.17;1781491;79;21511;-61
2021/05/05 04:55:00;;;;;;;3.62;3.30;;;;;;;14.31;42.84;98203.36;1737028;80;22229;-64
2021/05/05 04:57:28;;;;;;;3.20;2.90;;;;;;;14.53;42.68;98216.06;1805538;79;21176;-60
2021/05/05 04:59:55;;;;;;;4.47;2.52;;;;;;;14.82;42.00;98215.77;1747144;81;21115;-60
2021/05/05 05:02:23;;;;;;;2.50;2.30;;;;;;;14.90;41.82;98217.31;1757860;80;21148;-60
2021/05/05 05:04:53;;;;;;;3.42;2.77;;;;;;;15.10;41.36;98224.52;1759279;79;21219;-61
2021/05/05 05:07:20;;;;;;;5.35;2.77;;;;;;;15.22;41.09;98220.03;1721885;82;21350;-61
2021/05/05 05:09:47;;;;;;;2.70;2.35;;;;;;;15.33;40.90;98223.23;1791049;77;21183;-60
2021/05/05 05:12:15;;;;;;;3.17;2.08;;;;;;;15.46;40.44;98223.59;1739108;81;21194;-64
2021/05/05 05:14:45;;;;;;;3.17;2.20;;;;;;;15.58;40.47;98215.85;1751265;80;21165;-59
2021/05/05 05:17:12;;;;;;;3.33;2.25;;;;;;;15.83;40.38;98213.75;1745674;80;20960;-68
2021/05/05 05:19:40;;;;;;;7.45;2.62;;;;;;;16.13;39.70;98220.31;1710286;80;21445;-68
2021/05/05 05:22:08;;;;;;;4.75;3.17;;;;;;;16.37;39.12;98222.43;1777758;78;21045;-67
2021/05/05 05:24:36;;;;;;;5.40;2.25;;;;;;;16.45;38.92;98226.88;1781694;79;21200;-67
2021/05/05 05:27:04;;;;;;;7.00;3.08;;;;;;;16.59;38.69;98220.23;1782999;78;21106;-67
2021/05/05 05:29:32;;;;;;;6.28;3.45;;;;;;;16.84;38.43;98218.53;1793813;78;21080;-66
2021/05/05 05:31:59;;;;;;;6.65;2.98;;;;;;;17.12;37.80;98223.91;1789393;78;21285;-66
2021/05/05 05:34:27;;;;;;;6.00;3.83;;;;;;;17.28;37.33;98219.06;1780672;78;21207;-68
2021/05/05 05:36:55;;;;;;;7.15;4.65;;;;;;;17.48;37.31;98225.84;1787456;78;21074;-67
2021/05/05 05:39:22;;;;;;;7.53;4.67;;;;;;;17.76;36.90;98223.91;1793816;78;20915;-66
2021/05/05 05:41:50;;;;;;;6.00;4.05;;;;;;;18.06;36.18;98226.23;1771416;78;21150;-66
2021/05/05 05:44:17;;;;;;;7.60;3.60;;;;;;;18.31;35.69;98219.02;1771479;78;21461;-66
2021/05/05 05:46:45;;;;;;;6.05;3.40;;;;;;;18.61;35.51;98219.97;1779947;79;21081;-66
2021/05/05 05:49:12;;;;;;;6.83;2.55;;;;;;;18.96;34.60;98217.11;1724371;82;21032;-65
2021/05/05 05:51:40;;;;;;;8.63;2.42;;;;;;;19.26;33.72;98212.56;1763791;80;21148;-66
2021/05/05 05:54:08;;;;;;;5.95;2.47;;;;;;;19.53;32.80;98213.88;1734352;80;21177;-67
2021/05/05 05:56:35;;;;;;;4.65;2.05;;;;;;;19.72;32.17;98219.16;1742861;82;22880;-66
2021/05/05 05:59:03;;;;;;;7.50;2.12;;;;;;;19.85;31.95;98217.89;1736781;82;21041;-67
2021/05/05 06:01:30;;;;;;;3.35;1.70;;;;;;;19.90;31.30;98217.92;1730600;80;21046;-69
2021/05/05 06:03:58;;;;;;;11.97;2.10;;;;;;;20.03;31.13;98220.98;1738827;80;21085;-64
2021/05/05 06:06:25;;;;;;;3.55;1.87;;;;;;;20.24;31.00;98224.64;1722254;80;21058;-62
2021/05/05 06:08:54;;;;;;;5.10;1.72;;;;;;;20.41;30.64;98217.17;1721731;80;21471;-61
2021/05/05 06:11:21;;;;;;;2.80;1.65;;;;;;;20.59;30.71;98209.95;1738192;82;21057;-61
2021/05/05 06:13:48;;;;;;;6.53;1.82;;;;;;;20.89;30.07;98222.73;1752413;79;20955;-67
2021/05/05 06:16:18;;;;;;;5.97;1.85;;;;;;;21.09;29.34;98207.14;1748985;80;21017;-68
2021/05/05 06:18:45;;;;;;;8.23;2.12;;;;;;;21.17;29.35;98204.70;1729554;81;21117;-68
2021/05/05 06:21:13;;;;;;;3.95;1.92;;;;;;;21.39;28.98;98201.20;1769840;79;21391;-68
2021/05/05 06:23:41;;;;;;;5.03;1.82;;;;;;;21.48;28.53;98204.20;1801945;78;21004;-67
2021/05/05 06:26:09;;;;;;;4.10;2.00;;;;;;;21.46;27.76;98206.34;1783895;77;21099;-66
2021/05/05 06:28:37;;;;;;;4.60;1.57;;;;;;;21.44;28.04;98197.69;1802622;79;20993;-67
2021/05/05 06:31:04;;;;;;;3.70;1.67;;;;;;;21.58;26.96;98204.19;1793577;77;21185;-65
2021/05/05 06:33:32;;;;;;;4.62;1.62;;;;;;;21.62;27.13;98203.91;1800305;77;21421;-64
2021/05/05 06:35:59;;;;;;;1.60;1.50;;;;;;;21.69;27.08;98206.34;1787259;79;21203;-67
2021/05/05 06:38:27;;;;;;;3.10;1.75;;;;;;;21.77;26.88;98199.03;1802522;77;21099;-67
2021/05/05 06:40:54;;;;;;;5.90;1.92;;;;;;;21.76;26.91;98197.40;1783952;77;20933;-68
2021/05/05 06:43:22;;;;;;;2.77;1.80;;;;;;;21.78;27.19;98200.10;1784019;77;21013;-67
2021/05/05 06:45:49;;;;;;;4.90;2.08;;;;;;;21.77;26.80;98193.05;1739055;82;21376;-66
2021/05/05 06:48:18;;;;;;;2.75;1.60;;;;;;;21.79;26.83;98190.91;1749668;79;21029;-65
2021/05/05 06:50:47;;;;;;;4.22;1.70;;;;;;;21.87;26.85;98177.39;1749113;79;20953;-64
2021/05/05 06:53:14;;;;;;;5.30;1.60;;;;;;;21.99;26.89;98180.06;1749170;79;20957;-63
2021/05/05 06:55:44;;;;;;;2.05;1.85;;;;;;;22.12;26.89;98183.55;1749232;79;20981;-64
2021/05/05 06:58:12;;;;;;;2.95;1.42;;;;;;;22.15;26.08;98183.54;1771009;79;21360;-67
2021/05/05 07:00:39;;;;;;;3.98;1.72;;;;;;;21.97;26.44;98177.36;1762628;79;21027;-66
2021/05/05 07:03:07;;;;;;;6.75;1.57;;;;;;;21.95;26.52;98184.39;1791372;77;20971;-63
2021/05/05 07:05:35;;;;;;;4.58;1.65;;;;;;;21.97;26.68;98174.12;1784043;77;21119;-64
2021/05/05 07:08:03;;;;;;;4.78;1.80;;;;;;;22.01;26.72;98167.05;1783789;77;21048;-66
2021/05/05 07:10:31;;;;;;;4.30;1.60;;;;;;;22.10;26.89;98161.36;1784017;77;22284;-64
2021/05/05 07:13:00;;;;;;;4.53;1.62;;;;;;;22.23;26.77;98158.59;1783917;77;21028;-66
2021/05/05 07:15:30;;;;;;;2.15;1.50;;;;;;;22.37;26.85;98158.81;1724606;80;21062;-58
2021/05/05 07:17:57;;;;;;;4.10;1.60;;;;;;;22.50;26.75;98152.23;1733782;80;21098;-62
2021/05/05 07:20:25;;;;;;;3.72;1.60;;;;;;;22.68;26.98;98150.27;1716996;82;21138;-67
2021/05/05 07:22:54;;;;;;;2.12;1.87;;;;;;;22.74;26.52;98153.22;1794067;79;21202;-63
2021/05/05 07:25:21;;;;;;;4.03;1.95;;;;;;;22.76;26.65;98154.84;1812333;79;22293;-58
2021/05/05 07:27:49;;;;;;;2.55;1.60;;;;;;;22.88;27.02;98156.13;1765585;79;21004;-59
2021/05/05 07:30:18;;;;;;;1.70;1.45;;;;;;;23.05;27.95;98153.01;1789004;79;21094;-57
2021/05/05 07:32:45;;;;;;;3.50;1.62;;;;;;;23.18;28.30;98145.05;1771867;79;21128;-59
2021/05/05 07:35:15;;;;;;;3.45;1.65;;;;;;;23.38;27.93;98149.55;1772712;79;21087;-57
2021/05/05 07:45:42;;;;;;;3.30;1.40;;;;;;;23.25;26.18;98156.41;1788988;79;21221;-62
2021/05/05 07:48:08;;;;;;;4.20;1.70;;;;;;;23.26;26.03;98148.51;1762991;79;22528;-63
2021/05/05 07:50:36;;;;;;;2.65;1.80;;;;;;;23.32;26.04;98160.95;1763040;79;21617;-64
2021/05/05 07:53:03;;;;;;;1.92;1.20;;;;;;;23.19;25.81;98148.57;1763135;79;21071;-64
2021/05/05 07:55:30;;;;;;;2.15;1.65;;;;;;;23.16;25.82;98150.49;1763135;79;21131;-62
2021/05/05 07:57:56;;;;;;;2.75;1.47;;;;;;;23.19;26.05;98145.31;1795455;79;21180;-63
2021/05/05 08:00:23;;;;;;;4.78;1.70;;;;;;;23.27;26.16;98148.78;1763187;77;21245;-61
2021/05/05 08:02:50;;;;;;;3.47;1.60;;;;;;;23.43;26.11;98135.93;1763052;79;21036;-63
2021/05/05 08:05:18;;;;;;;3.45;1.80;;;;;;;23.66;25.87;98130.27;1776024;79;21015;-60
2021/05/05 08:07:48;;;;;;;3.77;2.02;;;;;;;23.70;25.47;98129.41;1781692;79;21051;-60
2021/05/05 08:10:15;;;;;;;2.67;1.62;;;;;;;23.78;25.01;98136.11;1763252;79;21121;-61
2021/05/05 08:12:43;;;;;;;3.20;2.02;;;;;;;23.92;25.00;98127.02;1763165;79;21200;-60
2021/05/05 08:15:13;;;;;;;2.33;1.75;;;;;;;24.10;25.08;98130.91;1805648;77;38413;-65
2021/05/05 08:17:43;;;;;;;3.05;1.70;;;;;;;24.24;24.74;98130.48;1787053;77;21032;-63
2021/05/05 08:20:12;;;;;;;4.47;1.80;;;;;;;24.34;24.62;98127.63;1763689;79;21133;-60
2021/05/05 08:22:39;;;;;;;5.28;2.22;;;;;;;24.47;24.59;98113.87;1780931;78;21162;-60
2021/05/05 08:25:08;;;;;;;4.53;1.90;;;;;;;24.63;24.47;98123.98;1789473;78;21571;-60
2021/05/05 08:27:35;;;;;;;3.87;1.85;;;;;;;24.82;24.25;98113.95;1802413;78;20982;-62
2021/05/05 08:30:05;;;;;;;3.85;2.05;;;;;;;25.06;23.88;98118.73;1806390;78;20999;-61
2021/05/05 08:32:32;;;;;;;6.87;2.20;;;;;;;25.18;23.13;98126.68;1805859;78;21455;-59
2021/05/05 08:35:00;;;;;;;5.05;1.90;;;;;;;25.06;23.28;98111.37;1794020;78;21120;-60
2021/05/05 08:37:28;;;;;;;4.87;2.25;;;;;;;24.96;23.61;98110.73;1795619;78;22285;-59
2021/05/05 08:39:56;;;;;;;5.70;1.80;;;;;;;24.70;23.58;98112.18;1773070;79;21136;-59
2021/05/05 08:42:24;;;;;;;6.85;1.80;;;;;;;24.54;23.73;98107.51;1773196;78;21057;-59
2021/05/05 08:44:52;;;;;;;3.05;1.60;;;;;;;24.56;23.90;98103.94;1773131;78;21005;-59
2021/05/05 08:47:21;;;;;;;3.08;1.85;;;;;;;24.60;24.17;98098.73;1793753;79;21130;-61
2021/05/05 08:49:49;;;;;;;4.45;1.85;;;;;;;24.60;24.08;98096.02;1800835;78;22297;-60
2021/05/05 08:52:16;;;;;;;3.15;1.80;;;;;;;24.67;23.96;98104.06;1791133;79;20987;-59
2021/05/05 08:54:47;;;;;;;4.95;1.90;;;;;;;24.66;23.99;98100.29;1777046;78;21176;-59
2021/05/05 08:57:15;;;;;;;2.47;1.77;;;;;;;24.70;23.91;98104.02;1767117;78;21044;-62
2021/05/05 08:59:44;;;;;;;3.05;1.77;;;;;;;24.70;23.74;98093.96;1765257;78;21496;-61
2021/05/05 09:02:11;;;;;;;3.80;1.90;;;;;;;24.73;23.84;98095.28;1773320;78;22278;-59
2021/05/05 09:04:58;;;;;;;2.65;1.67;;;;;;;24.73;23.77;98086.58;1765252;78;21132;-59
2021/05/05 09:07:34;;;;;;;3.60;1.80;;;;;;;24.79;23.74;98092.78;1789029;78;21058;-60
2021/05/05 09:10:13;;;;;;;1.82;1.72;;;;;;;24.84;23.67;98090.80;1783361;78;21673;-59
2021/05/05 09:12:41;;;;;;;4.75;2.00;;;;;;;24.83;23.84;98082.38;1790254;78;21106;-59
2021/05/05 09:15:19;;;;;;;2.85;1.85;;;;;;;24.92;24.17;98088.77;1794566;78;21365;-60
2021/05/05 09:17:53;;;;;;;3.22;1.60;;;;;;;24.93;23.92;98082.75;1773481;78;20938;-60
2021/05/05 09:20:35;;;;;;;4.53;1.92;;;;;;;24.81;24.12;98073.70;1797669;78;20985;-61
2021/05/05 09:23:03;;;;;;;2.27;1.82;;;;;;;24.83;24.28;98068.77;1772173;78;21190;-60
2021/05/05 09:25:36;;;;;;;2.67;1.70;;;;;;;24.95;23.99;98071.05;1773151;78;21143;-60
2021/05/05 09:28:22;;;;;;;3.37;1.50;;;;;;;25.21;23.50;98064.08;1769514;78;21130;-62
2021/05/05 09:30:58;;;;;;;8.48;1.87;;;;;;;25.43;23.43;98059.31;1773484;78;21297;-62
2021/05/05 09:33:32;;;;;;;2.70;1.70;;;;;;;25.64;22.95;98057.86;1800787;77;20871;-63
2021/05/05 09:36:07;;;;;;;4.72;2.00;;;;;;;25.45;22.83;98054.38;1779182;78;21128;-59
2021/05/05 09:38:50;;;;;;;3.25;1.80;;;;;;;25.21;22.88;98060.00;1773361;79;21041;-60
2021/05/05 09:41:23;;;;;;;4.85;1.72;;;;;;;25.05;23.01;98071.69;1772370;78;21353;-61
2021/05/05 09:43:52;;;;;;;3.55;1.70;;;;;;;24.86;23.28;98062.75;1806514;78;20990;-61
2021/05/05 09:46:43;;;;;;;3.02;2.00;;;;;;;24.77;23.51;98057.67;1777360;78;21128;-62
2021/05/05 09:49:25;;;;;;;4.80;1.62;;;;;;;24.68;23.43;98057.30;1795411;79;21022;-59
2021/05/05 09:52:08;;;;;;;5.45;1.62;;;;;;;24.69;23.76;98040.67;1773384;79;21140;-60
2021/05/05 09:54:53;;;;;;;2.40;1.82;;;;;;;24.94;23.29;98041.67;1797853;78;21418;-60
2021/05/05 09:57:29;;;;;;;;;;;;;;;25.00;23.45;98035.02;1770294;78;21558;-60
2021/05/05 10:00:18;;;;;;;2.65;1.55;;;;;;;25.07;23.58;98029.21;1775944;78;20122;-61
2021/05/05 10:02:50;;;;;;;2.02;1.50;;;;;;;25.39;22.97;98031.91;1746829;79;21149;-61
2021/05/05 10:05:29;;;;;;;3.95;1.70;;;;;;;25.68;22.68;98032.44;1731413;81;21086;-60
2021/05/05 10:08:06;;;;;;;2.00;1.60;;;;;;;25.93;22.08;98018.87;1738644;81;21365;-62
2021/05/05 10:10:42;;;;;;;2.75;1.50;;;;;;;26.20;22.26;98024.30;1745631;81;21156;-60
2021/05/05 10:13:11;;;;;;;4.78;1.70;;;;;;;26.48;21.05;98014.15;1737708;79;21149;-60
2021/05/05 10:15:42;;;;;;;1.42;1.32;;;;;;;26.42;21.04;98022.73;1758588;80;20957;-60
2021/05/05 10:18:16;;;;;;;2.45;1.50;;;;;;;26.29;21.00;98021.12;1752450;81;21120;-63
2021/05/05 10:20:47;;;;;;;4.60;1.30;;;;;;;26.20;20.91;98011.25;1755958;79;21196;-62
2021/05/05 10:23:17;;;;;;;1.57;1.47;;;;;;;26.21;20.97;98008.21;1738671;79;21514;-58
2021/05/05 10:25:50;;;;;;;2.92;1.70;;;;;;;26.29;21.03;98012.13;1731926;80;21070;-64
2021/05/05 10:28:18;;;;;;;2.08;1.40;;;;;;;26.27;21.21;97996.64;1739008;82;21696;-59
2021/05/05 10:30:45;;;;;;;1.52;1.40;;;;;;;26.13;20.62;98004.03;1738520;79;21047;-60
2021/05/05 10:33:18;;;;;;;2.70;1.60;;;;;;;25.91;20.91;98016.21;1704520;80;21732;-60
2021/05/05 10:35:43;;;;;;;3.12;1.52;;;;;;;25.63;21.61;98012.13;1725607;80;21151;-59
2021/05/05 10:38:31;;;;;;;2.17;1.47;;;;;;;25.24;21.67;98012.33;1760016;80;20999;-59
2021/05/05 10:41:11;;;;;;;2.60;1.50;;;;;;;24.94;21.74;98004.95;1803103;78;21192;-60
2021/05/05 10:43:46;;;;;;;2.98;1.62;;;;;;;24.75;22.03;97997.89;1791283;78;21172;-59
2021/05/05 10:46:32;;;;;;;1.90;1.50;;;;;;;24.57;22.35;98019.94;1728562;81;21202;-62
2021/05/05 10:49:08;;;;;;;2.00;1.75;;;;;;;24.32;22.87;98005.38;1773237;78;21037;-59
2021/05/05 10:51:56;;;;;;;3.67;1.47;;;;;;;24.06;23.11;98004.90;1797478;78;20978;-64
2021/05/05 10:54:45;;;;;;;4.78;1.70;;;;;;;24.02;22.66;97996.25;1785695;78;21129;-63
2021/05/05 10:57:13;;;;;;;2.22;1.50;;;;;;;23.96;22.95;97984.09;1722494;81;21141;-60
2021/05/05 11:00:06;;;;;;;1.80;1.55;;;;;;;24.01;23.04;97990.03;1745787;80;21254;-60
2021/05/05 11:02:57;;;;;;;5.00;1.55;;;;;;;24.07;22.72;97994.27;1729574;81;21213;-60
2021/05/05 11:05:32;;;;;;;2.22;1.40;;;;;;;24.01;22.62;97977.81;1738213;81;21180;-58
2021/05/05 11:08:05;;;;;;;2.20;1.30;;;;;;;23.92;22.78;97971.40;1738635;79;21033;-60
2021/05/05 11:10:42;;;;;;;4.67;1.35;;;;;;;23.87;23.17;97968.75;1738471;81;21165;-59
2021/05/05 11:13:24;;;;;;;4.87;1.20;;;;;;;23.88;23.26;97971.74;1735694;81;21374;-60
2021/05/05 11:15:55;;;;;;;1.75;1.62;;;;;;;23.82;23.57;97975.61;1738464;80;21128;-59
2021/05/05 11:18:42;;;;;;;4.42;1.32;;;;;;;23.62;23.47;97974.52;1737717;79;21477;-61
2021/05/05 11:21:33;;;;;;;3.33;1.67;;;;;;;23.32;24.35;97975.09;1752642;80;21149;-59
2021/05/05 11:24:01;;;;;;;3.55;1.57;;;;;;;23.01;24.80;97983.29;1744799;78;21138;-60
2021/05/05 11:26:31;;;;;;;2.65;1.60;;;;;;;22.91;24.58;97971.19;1757476;80;21320;-60
2021/05/05 11:29:10;;;;;;;2.95;1.50;;;;;;;22.90;24.32;97974.98;1779357;79;21622;-58
2021/05/05 11:31:53;;;;;;;;;;;;;;;22.98;24.44;97969.48;1759376;79;21175;-59
2021/05/05 11:34:29;;;;;;;1.30;1.20;;;;;;;23.10;24.20;97969.35;1736570;81;20803;-59
2021/05/05 11:37:07;;;;;;;2.70;1.50;;;;;;;23.23;24.09;97965.95;1753658;80;21242;-57
2021/05/05 11:39:56;;;;;;;1.30;1.20;;;;;;;23.20;24.24;97956.25;1757425;80;21373;-58
2021/05/05 11:42:27;;;;;;;1.80;1.40;;;;;;;23.05;24.45;97962.62;1777801;80;21083;-61
2021/05/05 11:44:58;;;;;;;3.25;1.42;;;;;;;22.94;24.44;97964.38;1775484;79;20950;-58
2021/05/05 11:47:32;;;;;;;2.98;1.45;;;;;;;22.73;24.45;97965.12;1725846;81;21109;-60
2021/05/05 11:50:11;;;;;;;1.57;1.47;;;;;;;22.44;25.10;97953.41;1757525;78;21169;-59
2021/05/05 11:52:47;;;;;;;3.58;1.52;;;;;;;22.36;24.99;97946.69;1726842;80;21379;-61
2021/05/05 11:55:23;;;;;;;5.17;1.50;;;;;;;22.46;24.69;97943.90;1780737;79;20932;-59
2021/05/05 11:57:52;;;;;;;;;;;;;;;22.52;24.51;97947.38;1749020;79;21656;-59
2021/05/05 12:00:36;;;;;;;1.98;1.50;;;;;;;22.56;24.39;97947.06;1744995;81;21237;-59